Terminal Aerodrome Forecast
Issued by NWS North Platte, NE

Home | Current Version | Previous Version | Graphics & Text | Print | Product List | Glossary On
Versions: 1 2 3 4 5 6 7 8 9 10 11 12 13 14 15 16 17
000
FTUS43 KLBF 142300
TAFVTN
TAF
KVTN 142320Z 1500/1524 05012KT P6SM OVC050
     FM150300 07008KT P6SM BKN025
     FM150800 35006KT P6SM SCT025 BKN070
     FM151200 35006KT P6SM SCT015=

USA.gov is the U.S. government's official web portal to all federal, state and local government web resources and services.